Time;durP1;ratioP1;P1;durP2;ratioP2;P2;SDS_P1;SDS_P2;PMS_P1;PMS_P2;Temp;Humidity;BMP_temperature;BMP_pressure;BME280_temperature;BME280_humidity;BME280_pressure;Samples;Min_cycle;Max_cycle;Signal;HPM_P1;HPM_P2
2020/12/22 00:01:14;;;;;;;7.25;1.60;;;;;;;;;;4944172;29;20515;-61
2020/12/22 00:03:40;;;;;;;8.65;1.40;;;;;;;;;;4945352;29;20046;-61
2020/12/22 00:06:07;;;;;;;6.90;1.38;;;;;;;;;;4943999;28;20098;-61
2020/12/22 00:08:33;;;;;;;5.05;1.25;;;;;;;;;;4942744;29;20039;-63
2020/12/22 00:10:58;;;;;;;4.20;1.80;;;;;;;;;;4944469;29;20119;-60
2020/12/22 00:13:24;;;;;;;9.55;2.03;;;;;;;;;;4944850;29;20090;-61
2020/12/22 00:15:50;;;;;;;8.52;3.40;;;;;;;;;;4942540;29;20047;-62
2020/12/22 00:18:16;;;;;;;8.32;2.30;;;;;;;;;;4933247;29;20050;-61
2020/12/22 00:20:42;;;;;;;9.13;2.15;;;;;;;;;;4945163;29;20054;-61
2020/12/22 00:23:08;;;;;;;7.45;2.90;;;;;;;;;;4944711;29;20045;-61
2020/12/22 00:25:44;;;;;;;7.32;1.50;;;;;;;;;;4944599;29;20126;-62
2020/12/22 00:28:11;;;;;;;6.35;1.48;;;;;;;;;;4944367;29;20075;-61
2020/12/22 00:30:36;;;;;;;3.92;1.38;;;;;;;;;;4942700;29;20054;-61
2020/12/22 00:33:03;;;;;;;4.18;1.48;;;;;;;;;;4944487;29;20512;-62
2020/12/22 00:35:29;;;;;;;3.50;1.13;;;;;;;;;;4941824;29;20169;-62
2020/12/22 00:37:55;;;;;;;4.50;1.30;;;;;;;;;;4942198;29;20039;-61
2020/12/22 00:40:21;;;;;;;6.00;1.67;;;;;;;;;;4941578;29;20066;-62
2020/12/22 00:42:47;;;;;;;4.47;1.23;;;;;;;;;;4945295;29;20035;-61
2020/12/22 00:45:13;;;;;;;3.53;1.30;;;;;;;;;;4944104;29;20035;-61
2020/12/22 00:47:38;;;;;;;3.92;1.13;;;;;;;;;;4942112;29;20039;-61
2020/12/22 00:50:04;;;;;;;4.93;1.35;;;;;;;;;;4943202;29;20050;-62
2020/12/22 00:52:30;;;;;;;3.17;1.00;;;;;;;;;;4944540;28;20043;-61
2020/12/22 00:54:56;;;;;;;3.20;1.08;;;;;;;;;;4944840;29;20055;-63
2020/12/22 00:57:22;;;;;;;6.45;1.08;;;;;;;;;;4941676;29;20104;-62
2020/12/22 00:59:48;;;;;;;3.75;1.05;;;;;;;;;;4945083;29;20071;-62
2020/12/22 01:02:14;;;;;;;2.65;0.90;;;;;;;;;;4944658;29;20053;-61
2020/12/22 01:04:40;;;;;;;3.63;0.82;;;;;;;;;;4942360;28;20642;-59
2020/12/22 01:07:06;;;;;;;3.72;1.10;;;;;;;;;;4938935;29;20039;-60
2020/12/22 01:09:32;;;;;;;7.13;1.50;;;;;;;;;;4930711;29;20723;-61
2020/12/22 01:11:58;;;;;;;5.18;2.58;;;;;;;;;;4944196;29;20568;-60
2020/12/22 01:14:24;;;;;;;3.38;1.30;;;;;;;;;;4942025;29;20074;-61
2020/12/22 01:16:49;;;;;;;10.52;4.82;;;;;;;;;;4941132;29;20035;-61
2020/12/22 01:19:15;;;;;;;3.78;1.52;;;;;;;;;;4942307;29;20051;-61
2020/12/22 01:21:41;;;;;;;3.08;1.42;;;;;;;;;;4944084;29;20126;-61
2020/12/22 01:24:07;;;;;;;5.25;1.85;;;;;;;;;;4944167;29;20039;-62
2020/12/22 01:26:33;;;;;;;5.97;1.80;;;;;;;;;;4941584;29;20044;-62
2020/12/22 01:28:59;;;;;;;4.47;1.80;;;;;;;;;;4941030;29;20058;-61
2020/12/22 01:31:26;;;;;;;4.13;1.92;;;;;;;;;;4942222;29;20051;-62
2020/12/22 01:33:52;;;;;;;4.82;1.77;;;;;;;;;;4943783;29;20043;-61
2020/12/22 01:36:18;;;;;;;3.65;1.67;;;;;;;;;;4942043;29;20043;-61
2020/12/22 01:38:45;;;;;;;3.47;1.55;;;;;;;;;;4943421;29;20048;-61
2020/12/22 01:41:11;;;;;;;4.82;1.70;;;;;;;;;;4942560;29;20074;-62
2020/12/22 01:43:36;;;;;;;5.28;1.50;;;;;;;;;;4941709;29;20044;-62
2020/12/22 01:46:04;;;;;;;2.88;1.10;;;;;;;;;;4942233;29;20047;-62
2020/12/22 01:48:30;;;;;;;6.53;1.70;;;;;;;;;;4938794;29;20103;-62
2020/12/22 01:50:56;;;;;;;21.20;2.45;;;;;;;;;;4941285;29;20047;-62
2020/12/22 01:53:21;;;;;;;3.67;1.40;;;;;;;;;;4943279;29;20059;-62
2020/12/22 01:55:48;;;;;;;2.95;1.20;;;;;;;;;;4929765;29;20051;-61
2020/12/22 01:58:14;;;;;;;25.65;4.00;;;;;;;;;;4942874;29;20075;-62
2020/12/22 02:00:39;;;;;;;3.80;1.65;;;;;;;;;;4944465;29;20070;-62
2020/12/22 02:03:06;;;;;;;4.43;1.92;;;;;;;;;;4945305;29;20087;-62
2020/12/22 02:05:36;;;;;;;8.15;1.80;;;;;;;;;;4942759;29;20607;-63
2020/12/22 02:08:02;;;;;;;5.40;1.60;;;;;;;;;;4943418;29;20081;-63
2020/12/22 02:10:28;;;;;;;8.05;3.38;;;;;;;;;;4941455;29;20069;-63
2020/12/22 02:12:54;;;;;;;4.78;1.60;;;;;;;;;;4943846;29;20035;-63
2020/12/22 02:15:20;;;;;;;3.95;1.95;;;;;;;;;;4942514;29;20032;-63
2020/12/22 02:17:46;;;;;;;5.55;3.05;;;;;;;;;;4943520;29;20111;-63
2020/12/22 02:20:12;;;;;;;3.95;1.45;;;;;;;;;;4943423;29;20051;-63
2020/12/22 02:22:38;;;;;;;3.33;1.45;;;;;;;;;;4943418;29;20059;-63
2020/12/22 02:25:05;;;;;;;2.42;0.80;;;;;;;;;;4943222;29;20036;-63
2020/12/22 02:27:36;;;;;;;2.97;1.23;;;;;;;;;;4941973;29;20059;-64
2020/12/22 02:30:03;;;;;;;2.30;0.68;;;;;;;;;;4945300;29;21545;-64
2020/12/22 02:32:29;;;;;;;1.45;0.50;;;;;;;;;;4945592;29;20261;-64
2020/12/22 02:34:55;;;;;;;1.77;0.77;;;;;;;;;;4944860;29;20121;-64
2020/12/22 02:37:21;;;;;;;3.47;0.80;;;;;;;;;;4945351;29;20040;-64
2020/12/22 02:39:48;;;;;;;3.17;1.25;;;;;;;;;;4944429;29;20094;-64
2020/12/22 02:42:14;;;;;;;2.72;0.80;;;;;;;;;;4946633;29;20342;-64
2020/12/22 02:44:40;;;;;;;2.65;1.05;;;;;;;;;;4946380;29;20094;-64
2020/12/22 02:47:10;;;;;;;2.35;0.95;;;;;;;;;;4944629;29;20039;-64
2020/12/22 02:49:36;;;;;;;2.17;0.73;;;;;;;;;;4944471;29;20054;-64
2020/12/22 02:52:02;;;;;;;2.63;0.85;;;;;;;;;;4945164;29;20156;-65
2020/12/22 02:54:28;;;;;;;1.52;0.55;;;;;;;;;;4943654;29;20046;-65
2020/12/22 02:56:53;;;;;;;2.45;0.90;;;;;;;;;;4946426;29;20145;-65
2020/12/22 02:59:19;;;;;;;4.57;1.25;;;;;;;;;;4933132;29;22058;-66
2020/12/22 03:01:45;;;;;;;3.30;1.45;;;;;;;;;;4945641;29;20424;-65
2020/12/22 03:04:12;;;;;;;2.92;1.10;;;;;;;;;;4946630;29;20826;-65
2020/12/22 03:06:38;;;;;;;2.42;1.02;;;;;;;;;;4944124;29;20036;-65
2020/12/22 03:09:05;;;;;;;2.95;1.20;;;;;;;;;;4944013;29;20062;-65
2020/12/22 03:11:30;;;;;;;4.35;1.48;;;;;;;;;;4946098;29;20111;-63
2020/12/22 03:13:56;;;;;;;3.60;1.88;;;;;;;;;;4947776;29;20039;-66
2020/12/22 03:16:22;;;;;;;3.97;1.60;;;;;;;;;;4945310;29;20223;-66
2020/12/22 03:18:48;;;;;;;5.47;1.55;;;;;;;;;;4945624;29;20106;-66
2020/12/22 03:21:15;;;;;;;3.45;1.10;;;;;;;;;;4944236;29;20087;-66
2020/12/22 03:23:42;;;;;;;1.95;0.75;;;;;;;;;;4942180;29;20075;-65
2020/12/22 03:26:07;;;;;;;2.47;1.00;;;;;;;;;;4944420;29;20043;-65
2020/12/22 03:28:33;;;;;;;7.65;1.13;;;;;;;;;;4943349;29;20046;-66
2020/12/22 03:30:59;;;;;;;2.35;0.68;;;;;;;;;;4944133;29;20054;-65
2020/12/22 03:33:25;;;;;;;2.50;0.80;;;;;;;;;;4942268;29;20071;-66
2020/12/22 03:35:51;;;;;;;1.80;0.75;;;;;;;;;;4943541;29;20043;-66
2020/12/22 03:38:17;;;;;;;1.38;0.70;;;;;;;;;;4944327;29;20036;-65
2020/12/22 03:40:43;;;;;;;2.17;1.00;;;;;;;;;;4944258;29;20063;-66
2020/12/22 03:43:09;;;;;;;1.65;0.70;;;;;;;;;;4944707;29;20401;-65
2020/12/22 03:45:36;;;;;;;2.13;0.80;;;;;;;;;;4942760;29;20101;-66
2020/12/22 03:48:02;;;;;;;1.13;0.65;;;;;;;;;;4925426;29;20235;-65
2020/12/22 03:50:28;;;;;;;1.25;0.68;;;;;;;;;;4944280;29;20061;-64
2020/12/22 03:52:54;;;;;;;1.63;0.60;;;;;;;;;;4943564;29;20226;-65
2020/12/22 03:55:19;;;;;;;2.38;0.77;;;;;;;;;;4943650;29;20047;-65
2020/12/22 03:57:45;;;;;;;4.03;1.20;;;;;;;;;;4944545;29;20054;-63
2020/12/22 04:00:13;;;;;;;1.38;0.60;;;;;;;;;;4944106;29;20082;-62
2020/12/22 04:02:39;;;;;;;0.73;0.45;;;;;;;;;;4944866;29;20551;-63
2020/12/22 04:05:05;;;;;;;1.10;0.40;;;;;;;;;;4943903;29;20077;-62
2020/12/22 04:07:31;;;;;;;0.65;0.50;;;;;;;;;;4943095;29;20046;-62
2020/12/22 04:09:57;;;;;;;0.45;0.30;;;;;;;;;;4945338;29;20064;-62
2020/12/22 04:12:23;;;;;;;0.65;0.40;;;;;;;;;;4943852;29;20050;-62
2020/12/22 04:14:48;;;;;;;0.70;0.40;;;;;;;;;;4944207;29;20043;-62
2020/12/22 04:17:14;;;;;;;0.55;0.40;;;;;;;;;;4944723;29;20050;-61
2020/12/22 04:19:40;;;;;;;1.20;0.60;;;;;;;;;;4946385;29;20077;-61
2020/12/22 04:22:06;;;;;;;1.38;0.52;;;;;;;;;;4946718;29;20042;-61
2020/12/22 04:24:32;;;;;;;2.25;0.50;;;;;;;;;;4945559;29;20051;-61
2020/12/22 04:26:58;;;;;;;1.10;0.57;;;;;;;;;;4946692;29;20078;-60
2020/12/22 04:29:24;;;;;;;4.35;0.73;;;;;;;;;;4946627;29;20046;-60
2020/12/22 04:31:50;;;;;;;0.95;0.50;;;;;;;;;;4945057;29;20050;-60
2020/12/22 04:34:15;;;;;;;1.52;0.60;;;;;;;;;;4947421;29;20036;-58
2020/12/22 04:36:41;;;;;;;1.88;0.85;;;;;;;;;;4943571;29;20044;-59
2020/12/22 04:39:07;;;;;;;2.17;1.00;;;;;;;;;;4945008;29;20129;-59
2020/12/22 04:41:36;;;;;;;3.65;1.60;;;;;;;;;;4943876;29;20043;-59
2020/12/22 04:44:02;;;;;;;1.70;0.90;;;;;;;;;;4942910;29;20704;-59
2020/12/22 04:46:28;;;;;;;1.90;0.73;;;;;;;;;;4941537;29;20039;-59
2020/12/22 04:48:55;;;;;;;2.47;1.20;;;;;;;;;;4944294;29;20039;-58
2020/12/22 04:51:21;;;;;;;1.35;0.63;;;;;;;;;;4942406;29;20040;-58
2020/12/22 04:53:48;;;;;;;2.63;1.15;;;;;;;;;;4942451;29;20166;-59
2020/12/22 04:56:14;;;;;;;1.08;0.47;;;;;;;;;;4944508;29;20055;-59
2020/12/22 04:58:41;;;;;;;4.88;1.20;;;;;;;;;;4944294;29;20051;-60
2020/12/22 05:01:07;;;;;;;1.90;0.77;;;;;;;;;;4944568;29;20044;-60
2020/12/22 05:03:33;;;;;;;3.08;1.33;;;;;;;;;;4943415;29;20040;-58
2020/12/22 05:05:59;;;;;;;3.15;1.35;;;;;;;;;;4943686;29;20047;-56
2020/12/22 05:08:25;;;;;;;1.13;0.73;;;;;;;;;;4944920;29;20103;-57
2020/12/22 05:10:51;;;;;;;2.10;0.70;;;;;;;;;;4945229;29;20071;-56
2020/12/22 05:13:18;;;;;;;1.00;0.50;;;;;;;;;;4945016;29;20707;-57
2020/12/22 05:15:53;;;;;;;1.58;0.70;;;;;;;;;;4945127;29;20500;-59
2020/12/22 05:18:25;;;;;;;1.35;0.60;;;;;;;;;;4944905;29;20046;-58
2020/12/22 05:20:51;;;;;;;2.20;0.95;;;;;;;;;;4945484;29;20428;-58
2020/12/22 05:23:18;;;;;;;3.15;1.13;;;;;;;;;;4944984;29;20046;-58
2020/12/22 05:25:45;;;;;;;2.85;1.17;;;;;;;;;;4943470;29;20043;-55
2020/12/22 05:28:14;;;;;;;0.43;0.40;;;;;;;;;;4927593;29;20111;-57
2020/12/22 05:30:41;;;;;;;1.40;0.77;;;;;;;;;;4943942;29;22090;-59
2020/12/22 05:33:07;;;;;;;1.63;1.00;;;;;;;;;;4946095;29;20039;-59
2020/12/22 05:35:36;;;;;;;2.17;0.93;;;;;;;;;;4942640;29;20099;-58
2020/12/22 05:38:03;;;;;;;2.25;0.98;;;;;;;;;;4943750;29;20079;-59
2020/12/22 05:40:32;;;;;;;1.95;0.85;;;;;;;;;;4929295;29;20055;-58
2020/12/22 05:42:59;;;;;;;2.75;1.02;;;;;;;;;;4945035;29;20051;-58
2020/12/22 05:45:30;;;;;;;1.98;0.77;;;;;;;;;;4944689;29;20489;-59
2020/12/22 05:47:56;;;;;;;1.85;0.88;;;;;;;;;;4944887;29;21667;-59
2020/12/22 05:50:23;;;;;;;1.70;0.77;;;;;;;;;;4942067;29;20111;-59
2020/12/22 05:52:51;;;;;;;2.25;0.80;;;;;;;;;;4943908;29;20154;-59
2020/12/22 05:55:27;;;;;;;3.65;1.30;;;;;;;;;;4943444;29;20129;-58
2020/12/22 05:58:12;;;;;;;1.35;0.70;;;;;;;;;;4943137;29;20107;-58
2020/12/22 06:00:38;;;;;;;2.65;1.17;;;;;;;;;;4943308;29;20075;-58
2020/12/22 06:03:07;;;;;;;1.38;0.52;;;;;;;;;;4944067;29;20050;-59
2020/12/22 06:05:35;;;;;;;2.47;0.95;;;;;;;;;;4946437;29;20054;-56
2020/12/22 06:08:02;;;;;;;3.00;1.00;;;;;;;;;;4948724;29;20511;-60
2020/12/22 06:10:28;;;;;;;1.33;0.50;;;;;;;;;;4946447;29;20138;-58
2020/12/22 06:12:57;;;;;;;4.07;1.27;;;;;;;;;;4946980;29;20086;-57
2020/12/22 06:15:23;;;;;;;1.98;0.82;;;;;;;;;;4945911;29;20035;-55
2020/12/22 06:17:49;;;;;;;2.60;0.98;;;;;;;;;;4947067;29;20075;-57
2020/12/22 06:20:17;;;;;;;2.60;0.90;;;;;;;;;;4946571;29;20055;-58
2020/12/22 06:22:43;;;;;;;1.25;0.55;;;;;;;;;;4947325;29;20067;-57
2020/12/22 06:25:09;;;;;;;3.67;0.90;;;;;;;;;;4945980;29;20043;-57
2020/12/22 06:27:35;;;;;;;2.78;1.08;;;;;;;;;;4946466;29;20042;-57
2020/12/22 06:30:01;;;;;;;1.95;0.80;;;;;;;;;;4946234;29;20046;-57
2020/12/22 06:32:27;;;;;;;2.88;1.38;;;;;;;;;;4946388;29;20047;-57
2020/12/22 06:34:54;;;;;;;2.35;1.08;;;;;;;;;;4947260;29;20048;-58
2020/12/22 06:37:30;;;;;;;2.40;0.98;;;;;;;;;;4948035;29;20422;-58
2020/12/22 06:39:56;;;;;;;2.40;0.90;;;;;;;;;;4946515;29;20123;-56
2020/12/22 06:42:28;;;;;;;2.33;0.77;;;;;;;;;;4945182;29;20043;-57
2020/12/22 06:44:54;;;;;;;1.55;0.80;;;;;;;;;;4946890;29;20401;-56
2020/12/22 06:47:33;;;;;;;2.63;1.58;;;;;;;;;;4945250;29;20048;-57
2020/12/22 06:49:59;;;;;;;1.67;0.70;;;;;;;;;;4946779;29;20047;-57
2020/12/22 06:52:38;;;;;;;2.17;0.88;;;;;;;;;;4944438;29;20043;-57
2020/12/22 06:55:05;;;;;;;1.83;0.63;;;;;;;;;;4946801;29;20039;-58
2020/12/22 06:57:51;;;;;;;1.60;0.63;;;;;;;;;;4945899;29;20056;-57
2020/12/22 07:00:27;;;;;;;1.33;0.63;;;;;;;;;;4946575;29;20139;-56
2020/12/22 07:02:53;;;;;;;1.92;0.80;;;;;;;;;;4945740;29;20047;-54
2020/12/22 07:05:54;;;;;;;2.25;1.10;;;;;;;;;;4945572;29;20178;-58
2020/12/22 07:08:21;;;;;;;2.90;1.20;;;;;;;;;;4875594;29;20044;-58
2020/12/22 07:10:50;;;;;;;3.05;1.50;;;;;;;;;;4933109;29;20055;-58
2020/12/22 07:13:17;;;;;;;4.53;1.90;;;;;;;;;;4946643;29;20044;-57
2020/12/22 07:15:44;;;;;;;3.70;1.50;;;;;;;;;;4945654;28;20055;-58
2020/12/22 07:18:11;;;;;;;2.97;1.67;;;;;;;;;;4947281;29;20043;-57
2020/12/22 07:20:38;;;;;;;2.88;1.35;;;;;;;;;;4946844;29;20051;-58
2020/12/22 07:23:04;;;;;;;3.50;1.75;;;;;;;;;;4946415;29;20043;-58
2020/12/22 07:25:31;;;;;;;6.20;3.42;;;;;;;;;;4943313;29;20058;-58
2020/12/22 07:27:57;;;;;;;4.00;1.38;;;;;;;;;;4949136;29;20039;-58
2020/12/22 07:30:23;;;;;;;5.05;2.75;;;;;;;;;;4944795;29;20071;-59
2020/12/22 07:32:52;;;;;;;6.68;2.50;;;;;;;;;;4945900;29;20055;-59
2020/12/22 07:35:18;;;;;;;3.95;1.67;;;;;;;;;;4945248;29;20059;-59
2020/12/22 07:37:44;;;;;;;3.70;1.52;;;;;;;;;;4945564;29;20062;-55
2020/12/22 07:40:09;;;;;;;5.95;3.20;;;;;;;;;;4944914;29;20066;-59
2020/12/22 07:42:35;;;;;;;5.22;2.47;;;;;;;;;;4944607;29;20035;-58
2020/12/22 07:45:07;;;;;;;5.57;2.63;;;;;;;;;;4944751;29;20226;-56
2020/12/22 07:47:34;;;;;;;3.40;1.85;;;;;;;;;;4944706;29;20047;-58
2020/12/22 07:50:16;;;;;;;5.38;2.50;;;;;;;;;;4945942;29;20043;-58
2020/12/22 07:52:42;;;;;;;7.50;4.40;;;;;;;;;;4945311;29;20067;-57
2020/12/22 07:55:08;;;;;;;3.50;1.65;;;;;;;;;;4944592;29;20091;-58
2020/12/22 07:57:37;;;;;;;7.15;2.28;;;;;;;;;;4944263;29;20067;-58
2020/12/22 08:00:04;;;;;;;8.23;4.38;;;;;;;;;;4945534;29;20069;-58
2020/12/22 08:02:30;;;;;;;6.57;3.40;;;;;;;;;;4945191;29;20082;-58
2020/12/22 08:04:56;;;;;;;5.28;2.67;;;;;;;;;;4945031;29;20077;-58
2020/12/22 08:07:22;;;;;;;4.32;1.42;;;;;;;;;;4943079;29;20036;-59
2020/12/22 08:09:48;;;;;;;3.72;1.60;;;;;;;;;;4944909;29;20064;-59
2020/12/22 08:12:14;;;;;;;3.38;1.40;;;;;;;;;;4944237;29;20094;-58
2020/12/22 08:14:41;;;;;;;3.25;1.05;;;;;;;;;;4941358;29;20035;-59
2020/12/22 08:17:10;;;;;;;2.92;1.25;;;;;;;;;;4945707;29;20058;-59
2020/12/22 08:19:39;;;;;;;2.38;0.88;;;;;;;;;;4943511;29;20118;-59
2020/12/22 08:22:05;;;;;;;1.25;0.73;;;;;;;;;;4946198;29;20048;-59
2020/12/22 08:24:33;;;;;;;0.73;0.40;;;;;;;;;;4945278;29;20113;-59
2020/12/22 08:29:46;;;;;;;2.25;0.98;;;;;;;;;;4944473;29;20055;-59
2020/12/22 08:32:15;;;;;;;2.00;0.52;;;;;;;;;;4944267;29;20051;-63
2020/12/22 08:34:45;;;;;;;1.45;0.70;;;;;;;;;;4945295;29;20086;-60
2020/12/22 08:37:11;;;;;;;2.00;0.70;;;;;;;;;;4944446;29;20043;-60
2020/12/22 08:39:40;;;;;;;3.20;1.27;;;;;;;;;;4942544;29;20052;-61
2020/12/22 08:42:07;;;;;;;2.78;1.13;;;;;;;;;;4944200;29;20040;-60
2020/12/22 08:44:33;;;;;;;3.20;1.02;;;;;;;;;;4943571;29;20047;-59
2020/12/22 08:47:09;;;;;;;2.40;0.88;;;;;;;;;;4944370;29;20035;-60
2020/12/22 08:49:35;;;;;;;2.05;0.80;;;;;;;;;;4943579;29;20044;-60
2020/12/22 08:52:11;;;;;;;2.13;0.80;;;;;;;;;;4945034;29;20167;-58
2020/12/22 08:54:37;;;;;;;3.42;1.45;;;;;;;;;;4943681;29;20039;-60
2020/12/22 08:57:16;;;;;;;3.60;1.27;;;;;;;;;;4943721;29;20052;-59
2020/12/22 08:59:42;;;;;;;2.90;0.98;;;;;;;;;;4943544;29;20058;-59
2020/12/22 09:02:27;;;;;;;5.63;2.47;;;;;;;;;;4944029;29;20432;-59
2020/12/22 09:04:53;;;;;;;3.22;1.20;;;;;;;;;;4942573;29;20089;-60
2020/12/22 09:07:19;;;;;;;1.27;0.55;;;;;;;;;;4943323;29;20047;-61
2020/12/22 09:09:44;;;;;;;1.73;0.68;;;;;;;;;;4943810;29;20040;-61
2020/12/22 09:12:11;;;;;;;2.50;0.90;;;;;;;;;;4943773;29;20043;-61
2020/12/22 09:14:49;;;;;;;1.83;0.70;;;;;;;;;;4942006;29;20452;-62
2020/12/22 09:17:38;;;;;;;3.40;0.90;;;;;;;;;;4944860;29;20054;-61
2020/12/22 09:20:07;;;;;;;1.40;0.70;;;;;;;;;;4933115;29;20051;-61
2020/12/22 09:22:33;;;;;;;1.17;0.40;;;;;;;;;;4942981;29;20044;-61
2020/12/22 09:25:04;;;;;;;1.88;0.50;;;;;;;;;;4943411;29;20044;-60
2020/12/22 09:27:31;;;;;;;1.05;0.50;;;;;;;;;;4944375;29;20054;-60
2020/12/22 09:29:57;;;;;;;0.65;0.40;;;;;;;;;;4943709;29;20562;-60
2020/12/22 09:32:24;;;;;;;1.55;0.50;;;;;;;;;;4943230;29;20063;-60
2020/12/22 09:34:50;;;;;;;1.35;0.52;;;;;;;;;;4945171;29;20035;-60
2020/12/22 09:37:16;;;;;;;1.58;0.60;;;;;;;;;;4944371;29;20040;-61
2020/12/22 09:39:42;;;;;;;1.38;0.57;;;;;;;;;;4945713;29;20040;-60
2020/12/22 09:42:08;;;;;;;1.48;0.50;;;;;;;;;;4946519;29;20040;-60
2020/12/22 09:44:35;;;;;;;0.30;0.30;;;;;;;;;;4947379;29;20040;-60
2020/12/22 09:47:01;;;;;;;0.80;0.38;;;;;;;;;;4947207;29;20616;-59
2020/12/22 09:49:27;;;;;;;1.23;0.40;;;;;;;;;;4946168;29;20051;-60
2020/12/22 09:51:53;;;;;;;1.85;0.50;;;;;;;;;;4946842;29;20050;-60
2020/12/22 09:54:20;;;;;;;0.52;0.40;;;;;;;;;;4946094;29;20044;-59
2020/12/22 09:56:46;;;;;;;3.17;0.52;;;;;;;;;;4946088;29;20065;-60
2020/12/22 09:59:12;;;;;;;1.02;0.40;;;;;;;;;;4947998;29;20120;-59
2020/12/22 10:01:38;;;;;;;1.00;0.40;;;;;;;;;;4946671;29;20079;-60
2020/12/22 10:04:04;;;;;;;1.20;0.40;;;;;;;;;;4945723;29;20055;-60
2020/12/22 10:06:30;;;;;;;0.82;0.40;;;;;;;;;;4945993;29;20099;-60
2020/12/22 10:08:56;;;;;;;1.25;0.52;;;;;;;;;;4947303;29;20036;-60
2020/12/22 10:11:22;;;;;;;0.52;0.30;;;;;;;;;;4944784;29;20054;-61
2020/12/22 10:13:48;;;;;;;0.35;0.32;;;;;;;;;;4946887;29;20127;-61
2020/12/22 10:16:15;;;;;;;0.63;0.40;;;;;;;;;;4947236;29;20131;-61
2020/12/22 10:18:41;;;;;;;1.02;0.52;;;;;;;;;;4946494;29;20162;-61
2020/12/22 10:21:10;;;;;;;0.77;0.43;;;;;;;;;;4947137;29;20047;-61
2020/12/22 10:23:37;;;;;;;0.68;0.40;;;;;;;;;;4946892;29;20067;-60
2020/12/22 10:26:03;;;;;;;1.58;0.55;;;;;;;;;;4947655;29;20067;-60
2020/12/22 10:28:30;;;;;;;5.30;0.68;;;;;;;;;;4946729;29;20039;-61
2020/12/22 10:30:56;;;;;;;2.10;0.60;;;;;;;;;;4946652;29;20531;-61
2020/12/22 10:33:22;;;;;;;1.00;0.55;;;;;;;;;;4947205;29;20035;-60
2020/12/22 10:35:48;;;;;;;0.55;0.38;;;;;;;;;;4946414;29;20055;-60
2020/12/22 10:38:14;;;;;;;2.22;0.73;;;;;;;;;;4946800;29;20059;-60
2020/12/22 10:40:39;;;;;;;1.13;0.40;;;;;;;;;;4946655;29;20051;-61
2020/12/22 10:43:06;;;;;;;1.90;0.57;;;;;;;;;;4946849;29;20075;-60
2020/12/22 10:45:32;;;;;;;0.95;0.40;;;;;;;;;;4943991;29;20197;-60
2020/12/22 10:47:58;;;;;;;0.82;0.43;;;;;;;;;;4947504;29;20046;-60
2020/12/22 10:50:24;;;;;;;0.43;0.40;;;;;;;;;;4945294;28;20118;-61
2020/12/22 10:52:50;;;;;;;5.65;0.47;;;;;;;;;;4946973;29;20047;-60
2020/12/22 10:55:16;;;;;;;0.60;0.30;;;;;;;;;;4944737;29;20040;-60
2020/12/22 10:57:42;;;;;;;0.52;0.40;;;;;;;;;;4946837;29;20047;-61
2020/12/22 11:00:08;;;;;;;0.93;0.50;;;;;;;;;;4947097;29;20067;-59
2020/12/22 11:02:34;;;;;;;0.65;0.40;;;;;;;;;;4930287;29;20039;-59
2020/12/22 11:05:00;;;;;;;0.80;0.40;;;;;;;;;;4925962;29;20055;-60
2020/12/22 11:08:02;;;;;;;0.65;0.43;;;;;;;;;;4945360;29;20075;-60
2020/12/22 11:10:19;;;;;;;0.73;0.40;;;;;;;;;;4930344;29;20758;-59
2020/12/22 11:12:46;;;;;;;0.57;0.40;;;;;;;;;;4945820;29;20040;-59
2020/12/22 11:15:12;;;;;;;0.73;0.47;;;;;;;;;;4945630;29;20118;-60
2020/12/22 11:17:38;;;;;;;1.25;0.43;;;;;;;;;;4946362;29;20034;-61
2020/12/22 11:20:04;;;;;;;1.83;0.55;;;;;;;;;;4946823;29;20066;-60
2020/12/22 11:22:30;;;;;;;0.82;0.60;;;;;;;;;;4943926;29;20035;-60
2020/12/22 11:24:56;;;;;;;0.63;0.35;;;;;;;;;;4946518;29;20051;-60
2020/12/22 11:27:21;;;;;;;0.90;0.40;;;;;;;;;;4944698;29;20047;-60
2020/12/22 11:29:47;;;;;;;0.30;0.30;;;;;;;;;;4945284;29;20095;-60
2020/12/22 11:32:13;;;;;;;1.52;0.60;;;;;;;;;;4946441;29;20047;-59
2020/12/22 11:34:39;;;;;;;1.45;0.40;;;;;;;;;;4944276;29;20772;-60
2020/12/22 11:37:05;;;;;;;2.65;0.82;;;;;;;;;;4943760;29;20036;-61
2020/12/22 11:39:31;;;;;;;1.70;0.60;;;;;;;;;;4944720;29;20097;-60
2020/12/22 11:42:04;;;;;;;2.50;0.57;;;;;;;;;;4945899;29;20059;-60
2020/12/22 11:44:30;;;;;;;1.85;0.60;;;;;;;;;;4944745;29;20055;-60
2020/12/22 11:46:56;;;;;;;2.15;0.63;;;;;;;;;;4946870;29;20103;-59
2020/12/22 11:49:22;;;;;;;5.22;1.88;;;;;;;;;;4946171;29;20194;-59
2020/12/22 11:51:54;;;;;;;2.90;1.25;;;;;;;;;;4945324;29;20045;-60
2020/12/22 11:54:20;;;;;;;3.42;1.38;;;;;;;;;;4943382;29;20074;-60
2020/12/22 11:56:46;;;;;;;4.47;2.13;;;;;;;;;;4946564;29;20036;-60
2020/12/22 11:59:12;;;;;;;6.28;1.77;;;;;;;;;;4946535;29;20146;-60
2020/12/22 12:01:38;;;;;;;3.67;1.70;;;;;;;;;;4944528;29;20114;-61
2020/12/22 12:04:04;;;;;;;3.28;1.30;;;;;;;;;;4944649;29;20052;-60
2020/12/22 12:06:29;;;;;;;2.83;1.17;;;;;;;;;;4943541;29;20527;-60
2020/12/22 12:08:55;;;;;;;3.15;1.00;;;;;;;;;;4929814;29;20067;-60
2020/12/22 12:11:21;;;;;;;3.80;1.48;;;;;;;;;;4944265;29;20063;-60
2020/12/22 12:13:48;;;;;;;3.80;1.00;;;;;;;;;;4944940;29;20055;-62
2020/12/22 12:16:18;;;;;;;5.00;0.80;;;;;;;;;;4945056;29;20040;-61
2020/12/22 12:18:44;;;;;;;1.67;0.52;;;;;;;;;;4945522;29;20054;-61
2020/12/22 12:21:13;;;;;;;2.05;0.85;;;;;;;;;;4945498;29;20109;-60
2020/12/22 12:23:39;;;;;;;2.13;0.70;;;;;;;;;;4944015;29;20047;-62
2020/12/22 12:26:07;;;;;;;2.05;0.80;;;;;;;;;;4944893;29;20050;-62
2020/12/22 12:28:33;;;;;;;1.75;0.60;;;;;;;;;;4943163;29;20055;-62
2020/12/22 12:30:59;;;;;;;1.27;0.60;;;;;;;;;;4944074;29;20043;-62
2020/12/22 12:33:25;;;;;;;2.30;0.82;;;;;;;;;;4944477;29;20036;-62
2020/12/22 12:35:51;;;;;;;13.23;1.83;;;;;;;;;;4944603;29;20046;-62
2020/12/22 12:38:17;;;;;;;3.03;1.08;;;;;;;;;;4945565;29;20047;-63
2020/12/22 12:40:42;;;;;;;1.38;0.50;;;;;;;;;;4943247;29;20082;-63
2020/12/22 12:43:08;;;;;;;1.92;0.70;;;;;;;;;;4944612;29;20046;-63
2020/12/22 12:45:34;;;;;;;1.40;0.50;;;;;;;;;;4942117;29;20043;-62
2020/12/22 12:48:00;;;;;;;2.08;0.80;;;;;;;;;;4944035;29;20142;-63
2020/12/22 12:50:25;;;;;;;2.22;0.80;;;;;;;;;;4944288;29;20047;-63
2020/12/22 12:52:51;;;;;;;7.40;1.20;;;;;;;;;;4943797;29;20040;-63
2020/12/22 12:55:17;;;;;;;2.30;1.00;;;;;;;;;;4945455;29;20107;-63
2020/12/22 12:57:43;;;;;;;21.80;2.65;;;;;;;;;;4943784;29;20040;-63
2020/12/22 13:00:09;;;;;;;2.35;0.80;;;;;;;;;;4945656;29;20140;-62
2020/12/22 13:02:36;;;;;;;2.90;1.13;;;;;;;;;;4942979;29;20492;-63
2020/12/22 13:05:04;;;;;;;2.83;0.95;;;;;;;;;;4943460;29;20215;-63
2020/12/22 13:07:33;;;;;;;3.75;0.90;;;;;;;;;;4943204;29;20067;-63
2020/12/22 13:10:03;;;;;;;2.45;0.90;;;;;;;;;;4944264;29;20044;-63
2020/12/22 13:12:28;;;;;;;9.23;2.03;;;;;;;;;;4942989;29;20044;-63
2020/12/22 13:14:54;;;;;;;2.35;0.90;;;;;;;;;;4944194;29;20051;-62
2020/12/22 13:17:20;;;;;;;2.80;1.08;;;;;;;;;;4941966;29;20114;-64
2020/12/22 13:19:46;;;;;;;2.58;1.10;;;;;;;;;;4945021;29;20074;-64
2020/12/22 13:22:12;;;;;;;5.22;0.90;;;;;;;;;;4944472;29;20051;-64
2020/12/22 13:24:38;;;;;;;2.50;0.80;;;;;;;;;;4945168;29;20366;-64
2020/12/22 13:27:04;;;;;;;5.22;0.90;;;;;;;;;;4943474;29;20051;-64
2020/12/22 13:29:30;;;;;;;5.80;1.30;;;;;;;;;;4943309;29;20061;-64
2020/12/22 13:31:55;;;;;;;3.28;0.80;;;;;;;;;;4943762;29;20039;-65
2020/12/22 13:34:21;;;;;;;2.20;0.75;;;;;;;;;;4943915;29;20257;-62
2020/12/22 13:36:50;;;;;;;2.97;0.90;;;;;;;;;;4944211;29;20106;-64
2020/12/22 13:39:16;;;;;;;2.80;0.90;;;;;;;;;;4937315;29;20058;-64
2020/12/22 13:41:42;;;;;;;2.30;0.82;;;;;;;;;;4942875;29;20063;-64
2020/12/22 13:44:08;;;;;;;1.92;0.73;;;;;;;;;;4944003;29;20039;-63
2020/12/22 13:46:34;;;;;;;2.53;0.90;;;;;;;;;;4942078;29;20111;-64
2020/12/22 13:49:00;;;;;;;3.75;2.05;;;;;;;;;;4945287;29;20045;-64
2020/12/22 13:51:25;;;;;;;2.25;0.82;;;;;;;;;;4944050;29;20043;-64
2020/12/22 13:53:52;;;;;;;3.25;1.20;;;;;;;;;;4943240;29;20031;-63
2020/12/22 13:56:18;;;;;;;10.13;1.52;;;;;;;;;;4943087;29;20513;-64
2020/12/22 13:58:44;;;;;;;3.00;1.23;;;;;;;;;;4944305;29;20063;-63
2020/12/22 14:01:10;;;;;;;5.57;1.13;;;;;;;;;;4944189;29;20049;-63
2020/12/22 14:03:36;;;;;;;9.45;1.60;;;;;;;;;;4941050;29;20047;-63
2020/12/22 14:06:02;;;;;;;3.42;1.40;;;;;;;;;;4944671;29;20050;-64
2020/12/22 14:08:28;;;;;;;2.67;0.90;;;;;;;;;;4941950;29;20051;-64
2020/12/22 14:10:54;;;;;;;2.25;0.80;;;;;;;;;;4944105;29;20070;-60
2020/12/22 14:13:20;;;;;;;2.58;0.88;;;;;;;;;;4942542;29;20047;-63
2020/12/22 14:15:46;;;;;;;2.00;0.80;;;;;;;;;;4928193;29;20050;-63
2020/12/22 14:18:12;;;;;;;2.13;0.70;;;;;;;;;;4928776;29;20054;-63
2020/12/22 14:20:38;;;;;;;2.20;0.90;;;;;;;;;;4942834;29;20091;-63
2020/12/22 14:23:04;;;;;;;2.15;0.60;;;;;;;;;;4942118;29;22380;-63
2020/12/22 14:25:30;;;;;;;1.80;0.60;;;;;;;;;;4945869;28;20074;-63
2020/12/22 14:27:56;;;;;;;3.65;1.20;;;;;;;;;;4932455;29;20070;-62
2020/12/22 14:30:21;;;;;;;2.40;0.80;;;;;;;;;;4946330;29;20098;-63
2020/12/22 14:32:47;;;;;;;2.72;0.82;;;;;;;;;;4944365;29;20059;-63
2020/12/22 14:35:13;;;;;;;2.38;0.90;;;;;;;;;;4946280;29;20222;-63
2020/12/22 14:37:39;;;;;;;3.00;1.30;;;;;;;;;;4946315;29;20074;-63
2020/12/22 14:40:05;;;;;;;2.00;0.85;;;;;;;;;;4947353;29;20055;-63
2020/12/22 14:42:31;;;;;;;3.13;1.08;;;;;;;;;;4945062;29;20047;-63
2020/12/22 14:44:56;;;;;;;3.47;1.40;;;;;;;;;;4945054;29;20048;-63